Time;durP1;ratioP1;P1;durP2;ratioP2;P2;SDS_P1;SDS_P2;PMS_P1;PMS_P2;Temp;Humidity;BMP_temperature;BMP_pressure;BME280_temperature;BME280_humidity;BME280_pressure;Samples;Min_cycle;Max_cycle;Signal;HPM_P1;HPM_P2
2022/06/17 00:01:52;;;;;;;1.50;0.77;;;17.10;57.50;17.20;101257.00;;;;5007240;27;87995;-66
2022/06/17 00:04:17;;;;;;;1.05;0.40;;;17.10;57.50;17.20;101241.00;;;;5014326;27;104743;-65
2022/06/17 00:06:52;;;;;;;0.50;0.50;;;17.10;57.50;17.20;101239.00;;;;5004786;27;87707;-65
2022/06/17 00:09:21;;;;;;;0.47;0.45;;;17.10;57.60;17.20;101255.00;;;;4995356;28;102309;-65
2022/06/17 00:11:47;;;;;;;1.27;0.50;;;17.10;57.60;17.20;101254.00;;;;5013603;27;86977;-66
2022/06/17 00:14:22;;;;;;;0.82;0.68;;;17.10;57.70;17.20;101261.00;;;;4998608;28;87783;-66
2022/06/17 00:16:49;;;;;;;0.88;0.85;;;17.10;57.70;17.20;101251.00;;;;5018793;27;87793;-66
2022/06/17 00:19:18;;;;;;;1.08;0.75;;;17.00;57.70;17.10;101263.00;;;;5017676;27;90492;-66
2022/06/17 00:21:48;;;;;;;1.00;0.65;;;17.00;58.00;17.00;101258.00;;;;5018579;27;90075;-65
2022/06/17 00:24:31;;;;;;;1.35;0.95;;;16.90;58.20;16.90;101260.00;;;;4999588;27;99412;-66
2022/06/17 00:26:57;;;;;;;1.02;0.80;;;16.90;58.30;16.90;101262.00;;;;5006679;27;99049;-66
2022/06/17 00:29:30;;;;;;;0.40;0.40;;;16.80;58.30;16.90;101251.00;;;;5018195;27;99156;-66
2022/06/17 00:31:59;;;;;;;0.43;0.43;;;16.80;58.50;16.80;101264.00;;;;5018507;27;88165;-66
2022/06/17 00:34:25;;;;;;;1.05;0.82;;;16.70;58.60;16.80;101261.00;;;;5018365;27;87936;-65
2022/06/17 00:37:06;;;;;;;0.90;0.77;;;16.70;58.90;16.70;101265.00;;;;4999037;27;99230;-66
2022/06/17 00:39:34;;;;;;;0.75;0.43;;;16.60;59.20;16.60;101259.00;;;;5024062;27;88900;-66
2022/06/17 00:42:08;;;;;;;1.48;0.98;;;16.50;59.30;16.50;101262.00;;;;5005722;27;98251;-66
2022/06/17 00:45:00;;;;;;;0.50;0.50;;;16.50;59.60;16.50;101264.00;;;;4999417;27;89472;-65
2022/06/17 00:47:52;;;;;;;1.13;0.65;;;16.40;59.80;16.40;101267.00;;;;5016415;27;87663;-66
2022/06/17 00:50:26;;;;;;;1.48;1.15;;;16.40;60.80;16.40;101266.00;;;;5016279;27;87786;-66
2022/06/17 00:53:23;;;;;;;0.88;0.63;;;16.30;60.20;16.30;101263.00;;;;5012036;27;88138;-66
2022/06/17 00:56:00;;;;;;;0.77;0.22;;;16.20;60.80;16.20;101267.00;;;;5008649;27;87951;-66
2022/06/17 00:58:55;;;;;;;0.50;0.50;;;16.10;61.00;16.10;101267.00;;;;5018382;27;87564;-65
2022/06/17 01:01:22;;;;;;;1.55;0.75;;;16.10;61.20;16.10;101254.00;;;;5026332;27;88035;-65
2022/06/17 01:03:54;;;;;;;0.63;0.57;;;16.00;61.50;16.10;101263.00;;;;5010910;27;87360;-65
2022/06/17 01:06:25;;;;;;;0.63;0.57;;;16.00;61.60;16.00;101274.00;;;;5000039;27;87910;-65
2022/06/17 01:11:41;;;;;;;0.60;0.60;;;15.90;62.20;15.90;101272.00;;;;5003780;27;88723;-65
2022/06/17 01:14:11;;;;;;;0.98;0.85;;;15.80;62.50;15.80;101268.00;;;;5016959;27;109929;-65
2022/06/17 01:16:41;;;;;;;1.15;0.45;;;15.80;63.20;15.70;101274.00;;;;5009176;27;87726;-66
2022/06/17 01:19:34;;;;;;;0.40;0.40;;;15.70;63.40;15.60;101282.00;;;;5001895;27;87988;-66
2022/06/17 01:22:24;;;;;;;1.02;0.63;;;15.60;63.60;15.60;101273.00;;;;5019202;27;87653;-65
2022/06/17 01:24:53;;;;;;;0.95;0.68;;;15.60;63.90;15.60;101281.00;;;;5015809;27;97616;-65
2022/06/17 01:27:23;;;;;;;0.60;0.60;;;15.50;63.90;15.60;101280.00;;;;5016511;27;88056;-66
2022/06/17 01:29:49;;;;;;;0.68;0.68;;;15.50;64.00;15.50;101287.00;;;;5016894;27;99677;-65
2022/06/17 01:32:18;;;;;;;0.63;0.60;;;15.50;64.20;15.50;101286.00;;;;5012470;27;88154;-65
2022/06/17 01:34:44;;;;;;;0.50;0.50;;;15.50;64.30;15.50;101282.00;;;;4995906;27;109396;-65
2022/06/17 01:37:10;;;;;;;0.57;0.40;;;15.40;64.50;15.50;101284.00;;;;5004587;27;111608;-65
2022/06/17 01:39:37;;;;;;;0.50;0.43;;;15.40;64.80;15.40;101296.00;;;;5013195;27;87661;-65
2022/06/17 01:42:04;;;;;;;0.85;0.65;;;15.30;65.00;15.30;101293.00;;;;4994472;28;118365;-65
2022/06/17 01:44:33;;;;;;;0.55;0.43;;;15.30;65.20;15.30;101281.00;;;;5012462;27;88191;-66
2022/06/17 01:47:03;;;;;;;0.60;0.60;;;15.30;65.50;15.30;101286.00;;;;5017566;27;87782;-66
2022/06/17 01:50:02;;;;;;;1.40;0.80;;;15.20;65.60;15.20;101295.00;;;;5003054;27;87674;-66
2022/06/17 01:52:38;;;;;;;0.68;0.65;;;15.20;65.90;15.20;101296.00;;;;4995608;28;109742;-65
2022/06/17 01:55:23;;;;;;;3.30;0.47;;;15.20;66.10;15.10;101298.00;;;;4985066;28;87960;-65
2022/06/17 01:58:11;;;;;;;1.93;0.87;;;15.10;66.40;15.10;101290.00;;;;4977784;27;102237;-66
2022/06/17 02:00:36;;;;;;;0.77;0.70;;;15.10;66.70;15.00;101298.00;;;;4979040;27;87778;-65
2022/06/17 02:03:29;;;;;;;1.23;0.60;;;15.00;66.90;15.00;101293.00;;;;4980964;27;89521;-66
2022/06/17 02:06:16;;;;;;;0.22;0.22;;;15.00;67.20;14.90;101306.00;;;;4997784;27;88016;-65
2022/06/17 02:08:42;;;;;;;1.70;0.60;;;14.90;67.50;14.90;101303.00;;;;4993732;28;101892;-65
2022/06/17 02:11:08;;;;;;;1.70;0.87;;;14.90;67.90;14.80;101305.00;;;;4995893;28;109500;-65
2022/06/17 02:13:40;;;;;;;0.83;0.70;;;14.80;68.30;14.70;101316.00;;;;4978055;28;99558;-65
2022/06/17 02:16:07;;;;;;;0.70;0.50;;;14.70;68.70;14.70;101310.00;;;;5001696;27;88995;-65
2022/06/17 02:18:35;;;;;;;0.83;0.83;;;14.60;69.00;14.60;101304.00;;;;4993897;28;87806;-65
2022/06/17 02:21:08;;;;;;;1.30;0.90;;;14.60;69.60;14.50;101315.00;;;;5013090;27;109101;-66
2022/06/17 02:23:34;;;;;;;0.57;0.57;;;14.50;70.10;14.40;101315.00;;;;5016782;27;88218;-65
2022/06/17 02:26:01;;;;;;;0.83;0.67;;;14.40;70.90;14.40;101319.00;;;;5015100;27;96910;-65
2022/06/17 02:28:29;;;;;;;0.50;0.50;;;14.30;71.40;14.20;101324.00;;;;5014540;27;110881;-66
2022/06/17 02:30:57;;;;;;;1.13;0.77;;;14.20;72.00;14.10;101323.00;;;;4993887;27;87969;-65
2022/06/17 02:33:23;;;;;;;1.03;0.57;;;14.10;72.60;14.10;101318.00;;;;4977836;28;89395;-65
2022/06/17 02:36:07;;;;;;;0.83;0.83;;;14.00;73.10;13.90;101318.00;;;;4996668;27;96709;-65
2022/06/17 02:38:36;;;;;;;0.87;0.87;;;14.00;74.10;13.80;101313.00;;;;5000854;27;88028;-65
2022/06/17 02:41:07;;;;;;;0.87;0.80;;;13.80;74.60;13.70;101314.00;;;;4994251;28;88126;-64
2022/06/17 02:43:43;;;;;;;1.33;1.10;;;13.70;75.20;13.60;101313.00;;;;4996123;28;88688;-65
2022/06/17 02:46:22;;;;;;;1.13;0.77;;;13.60;75.80;13.60;101315.00;;;;4978233;28;88387;-65
2022/06/17 02:48:57;;;;;;;0.77;0.77;;;13.60;76.50;13.50;101317.00;;;;4996712;27;87978;-65
2022/06/17 02:51:25;;;;;;;0.63;0.63;;;13.50;77.30;13.40;101318.00;;;;5009949;27;87861;-65
2022/06/17 02:53:51;;;;;;;0.50;0.50;;;13.40;78.00;13.40;101314.00;;;;5015919;27;88661;-65
2022/06/17 02:56:28;;;;;;;0.73;0.73;;;13.40;78.70;13.30;101307.00;;;;5002913;27;117895;-65
2022/06/17 02:59:18;;;;;;;0.77;0.70;;;13.30;79.60;13.20;101312.00;;;;4993850;28;89345;-65
2022/06/17 03:01:44;;;;;;;2.23;0.83;;;13.30;80.10;13.20;101313.00;;;;4995646;27;94601;-65
2022/06/17 03:04:21;;;;;;;0.90;0.60;;;13.20;80.40;13.20;101308.00;;;;4986559;28;116687;-65
2022/06/17 03:06:49;;;;;;;0.90;0.67;;;13.20;81.00;13.20;101306.00;;;;4995230;27;111000;-65
2022/06/17 03:09:32;;;;;;;1.07;0.80;;;13.20;81.30;13.10;101308.00;;;;4996586;27;88096;-64
2022/06/17 03:12:26;;;;;;;1.67;0.97;;;13.20;82.10;13.00;101315.00;;;;5016993;27;86908;-65
2022/06/17 03:15:09;;;;;;;0.80;0.80;;;13.10;82.90;13.00;101317.00;;;;4997262;27;88153;-65
2022/06/17 03:17:41;;;;;;;1.90;1.07;;;13.00;83.70;12.90;101312.00;;;;5014767;27;96515;-65
2022/06/17 03:20:18;;;;;;;1.17;0.73;;;12.90;84.40;12.90;101310.00;;;;5011335;27;89445;-65
2022/06/17 03:22:49;;;;;;;0.67;0.50;;;12.80;85.40;12.80;101318.00;;;;5015440;27;87815;-64
2022/06/17 03:25:34;;;;;;;4.40;1.27;;;12.70;86.20;12.70;101326.00;;;;5014058;27;87923;-65
2022/06/17 03:28:07;;;;;;;0.67;0.67;;;12.70;86.90;12.80;101324.00;;;;5012740;27;88271;-66
2022/06/17 03:30:54;;;;;;;1.60;1.27;;;12.70;87.30;12.70;101323.00;;;;5016039;27;87730;-65
2022/06/17 03:33:24;;;;;;;1.00;0.90;;;12.70;88.20;12.70;101314.00;;;;5014290;27;87957;-65
2022/06/17 03:35:57;;;;;;;1.47;1.37;;;12.70;89.10;12.70;101316.00;;;;5010578;27;98040;-65
2022/06/17 03:38:56;;;;;;;1.70;0.97;;;12.70;90.00;12.70;101313.00;;;;4992555;28;87943;-67
2022/06/17 03:41:39;;;;;;;1.07;0.60;;;12.70;90.00;12.80;101315.00;;;;4993819;27;87933;-64
2022/06/17 03:44:18;;;;;;;0.83;0.83;;;12.70;90.20;12.80;101311.00;;;;5009285;27;88764;-64
2022/06/17 03:46:56;;;;;;;2.37;0.90;;;12.80;90.30;12.90;101319.00;;;;4993456;27;89097;-65
2022/06/17 03:49:37;;;;;;;1.43;0.60;;;12.80;90.40;13.00;101327.00;;;;5003082;27;111890;-64
2022/06/17 03:52:19;;;;;;;1.73;1.20;;;12.90;90.40;13.10;101330.00;;;;4994243;27;99854;-64
2022/06/17 03:54:45;;;;;;;0.67;0.67;;;13.00;90.50;13.20;101329.00;;;;4995082;28;87818;-64
2022/06/17 03:57:14;;;;;;;0.50;0.50;;;13.20;90.60;13.30;101321.00;;;;4994333;28;117053;-65
2022/06/17 03:59:56;;;;;;;0.77;0.77;;;13.20;90.50;13.40;101322.00;;;;4992205;28;108625;-64
2022/06/17 04:02:23;;;;;;;1.13;1.00;;;13.30;90.50;13.50;101332.00;;;;5000519;27;111109;-64
2022/06/17 04:04:53;;;;;;;0.67;0.67;;;13.40;90.50;13.60;101332.00;;;;4996280;27;109780;-64
2022/06/17 04:07:19;;;;;;;1.20;1.00;;;13.50;90.50;13.70;101341.00;;;;5009508;27;88889;-67
2022/06/17 04:09:47;;;;;;;1.10;0.97;;;13.60;90.50;13.80;101343.00;;;;4986656;28;116928;-64
2022/06/17 04:12:13;;;;;;;1.07;0.90;;;13.60;90.40;13.90;101344.00;;;;5000942;27;88601;-64
2022/06/17 04:14:48;;;;;;;1.90;1.40;;;13.80;90.50;14.00;101338.00;;;;5013583;27;109986;-64
2022/06/17 04:17:37;;;;;;;1.07;0.90;;;13.90;90.60;14.10;101342.00;;;;5000996;27;88129;-64
2022/06/17 04:20:38;;;;;;;2.47;1.10;;;14.00;90.60;14.20;101357.00;;;;4995260;27;88328;-64
2022/06/17 04:23:24;;;;;;;1.50;1.10;;;14.10;90.50;14.30;101369.00;;;;4993593;27;87867;-64
2022/06/17 04:26:24;;;;;;;1.57;1.47;;;14.20;90.40;14.50;101368.00;;;;5015076;27;87633;-63
2022/06/17 04:28:54;;;;;;;1.47;1.00;;;14.30;90.20;14.60;101363.00;;;;4993924;28;88099;-65
2022/06/17 04:31:26;;;;;;;1.53;1.07;;;14.50;90.00;14.80;101357.00;;;;4994890;28;109315;-64
2022/06/17 04:34:13;;;;;;;0.93;0.90;;;14.60;89.60;14.90;101366.00;;;;5008386;27;87814;-65
2022/06/17 04:36:50;;;;;;;1.07;0.97;;;14.80;89.20;15.10;101366.00;;;;5004309;27;87801;-64
2022/06/17 04:39:53;;;;;;;0.60;0.60;;;14.90;88.70;15.30;101376.00;;;;4989065;28;96827;-64
2022/06/17 04:42:34;;;;;;;2.53;1.00;;;15.10;87.90;15.40;101372.00;;;;5001944;27;88688;-64
2022/06/17 04:45:00;;;;;;;0.50;0.50;;;15.30;87.20;15.60;101379.00;;;;4988464;27;88036;-65
2022/06/17 04:47:26;;;;;;;1.17;0.87;;;15.40;86.60;15.70;101377.00;;;;4995520;27;87807;-66
2022/06/17 04:50:00;;;;;;;1.17;0.87;;;15.60;85.90;15.80;101380.00;;;;4988092;27;118446;-65
2022/06/17 04:52:38;;;;;;;1.30;0.98;;;15.70;85.30;16.00;101381.00;;;;4994428;27;109800;-65
2022/06/17 04:55:14;;;;;;;0.70;0.70;;;15.80;84.50;16.10;101388.00;;;;5012932;27;87695;-65
2022/06/17 04:57:41;;;;;;;0.63;0.45;;;15.90;83.80;16.20;101386.00;;;;4996314;27;87021;-65
2022/06/17 05:00:15;;;;;;;0.57;0.55;;;16.10;83.20;16.30;101385.00;;;;5014429;27;88323;-64
2022/06/17 05:02:41;;;;;;;0.60;0.57;;;16.20;82.60;16.50;101396.00;;;;4990053;27;88447;-64
2022/06/17 05:05:12;;;;;;;0.47;0.40;;;16.30;82.00;16.70;101388.00;;;;4989572;27;108728;-65
2022/06/17 05:07:45;;;;;;;0.50;0.50;;;16.50;81.50;16.80;101396.00;;;;4999182;27;87930;-65
2022/06/17 05:10:22;;;;;;;3.47;0.63;;;16.70;80.70;17.00;101395.00;;;;4997910;28;87668;-64
2022/06/17 05:13:25;;;;;;;0.40;0.38;;;16.80;80.00;17.20;101399.00;;;;5002141;27;105974;-65
2022/06/17 05:15:51;;;;;;;1.13;0.43;;;17.00;79.10;17.40;101396.00;;;;4976572;27;100476;-66
2022/06/17 05:18:17;;;;;;;0.50;0.50;;;17.20;78.20;17.50;101400.00;;;;5017724;27;87903;-66
2022/06/17 05:20:44;;;;;;;0.70;0.50;;;17.40;77.40;17.70;101385.00;;;;5016572;27;89211;-65
2022/06/17 05:23:15;;;;;;;0.52;0.45;;;17.50;76.70;17.90;101389.00;;;;4995366;28;95379;-66
2022/06/17 05:25:48;;;;;;;0.60;0.60;;;17.70;76.00;18.00;101394.00;;;;4997861;27;87703;-65
2022/06/17 05:28:20;;;;;;;4.95;1.15;;;17.80;75.20;18.20;101393.00;;;;5016237;27;87790;-65
2022/06/17 05:30:53;;;;;;;0.63;0.63;;;18.00;74.60;18.40;101388.00;;;;5015740;27;90110;-65
2022/06/17 05:33:20;;;;;;;0.57;0.50;;;18.20;74.20;18.60;101400.00;;;;4999795;27;88669;-65
2022/06/17 05:35:48;;;;;;;0.50;0.50;;;18.30;73.70;18.80;101388.00;;;;4998153;27;87805;-65
2022/06/17 05:38:13;;;;;;;0.43;0.43;;;18.60;72.90;19.00;101391.00;;;;4997063;27;87913;-66
2022/06/17 05:40:41;;;;;;;3.78;0.60;;;18.70;71.50;19.10;101387.00;;;;4997325;27;117306;-67
2022/06/17 05:43:08;;;;;;;0.45;0.45;;;18.90;71.00;19.20;101395.00;;;;5008750;27;88697;-66
2022/06/17 05:45:34;;;;;;;0.40;0.40;;;19.10;70.50;19.40;101391.00;;;;4978400;27;100164;-66
2022/06/17 05:48:01;;;;;;;0.50;0.30;;;19.20;69.90;19.50;101405.00;;;;4997225;28;86955;-66
2022/06/17 05:50:51;;;;;;;0.75;0.75;;;19.40;69.00;19.70;101399.00;;;;4999033;27;88711;-66
2022/06/17 05:53:17;;;;;;;1.02;0.85;;;19.50;68.00;19.80;101399.00;;;;5004521;27;115817;-65
2022/06/17 05:55:43;;;;;;;0.60;0.55;;;19.60;67.30;19.90;101406.00;;;;5014133;27;109248;-66
2022/06/17 05:58:08;;;;;;;0.40;0.25;;;19.70;67.10;20.00;101407.00;;;;4996351;28;108235;-65
2022/06/17 06:00:35;;;;;;;2.85;0.57;;;19.80;66.60;20.20;101408.00;;;;4995898;27;117852;-66
2022/06/17 06:03:05;;;;;;;0.60;0.52;;;20.00;66.10;20.30;101407.00;;;;4985151;27;87855;-66
2022/06/17 06:05:33;;;;;;;0.65;0.60;;;20.10;65.50;20.50;101399.00;;;;5013565;27;91855;-65
2022/06/17 06:07:59;;;;;;;0.68;0.50;;;20.30;65.00;20.70;101411.00;;;;5017184;27;87845;-66
2022/06/17 06:10:27;;;;;;;0.70;0.38;;;20.40;64.50;20.80;101412.00;;;;5017842;27;95270;-66
2022/06/17 06:13:03;;;;;;;0.40;0.25;;;20.60;64.50;21.00;101423.00;;;;5001076;27;88760;-66
2022/06/17 06:15:38;;;;;;;0.60;0.60;;;20.80;63.10;21.20;101426.00;;;;5017367;27;87901;-65
2022/06/17 06:18:09;;;;;;;0.70;0.43;;;21.00;62.50;21.40;101434.00;;;;5017458;27;87943;-66
2022/06/17 06:20:34;;;;;;;0.45;0.45;;;21.20;62.00;21.60;101423.00;;;;4997548;27;88906;-66
2022/06/17 06:23:00;;;;;;;0.30;0.30;;;21.40;61.60;21.90;101427.00;;;;5006218;27;117425;-65
2022/06/17 06:25:26;;;;;;;0.98;0.50;;;21.60;60.70;22.00;101431.00;;;;4995585;28;110367;-66
2022/06/17 06:27:52;;;;;;;0.28;0.28;;;21.80;59.40;22.20;101425.00;;;;5009574;27;107711;-66
2022/06/17 06:30:26;;;;;;;0.40;0.40;;;22.00;59.20;22.50;101430.00;;;;4976994;28;116426;-66
2022/06/17 06:32:56;;;;;;;0.15;0.15;;;22.20;58.60;22.70;101429.00;;;;4997789;27;89347;-67
2022/06/17 06:35:26;;;;;;;0.65;0.55;;;22.40;58.00;22.90;101429.00;;;;5013448;27;87709;-65
2022/06/17 06:37:52;;;;;;;0.60;0.50;;;22.70;57.50;23.10;101427.00;;;;5014365;27;86974;-66
2022/06/17 06:40:19;;;;;;;0.20;0.20;;;22.90;56.90;23.30;101439.00;;;;5016525;27;115083;-65
2022/06/17 06:42:48;;;;;;;0.65;0.65;;;23.00;56.30;23.40;101438.00;;;;5000154;27;88928;-66
2022/06/17 06:45:35;;;;;;;0.77;0.60;;;23.20;56.00;23.60;101433.00;;;;5016705;27;88638;-66
2022/06/17 06:48:05;;;;;;;0.90;0.52;;;23.40;55.10;23.80;101422.00;;;;5017253;27;87837;-67
2022/06/17 06:50:33;;;;;;;1.15;0.50;;;23.50;54.70;23.90;101439.00;;;;5014920;27;87952;-66
2022/06/17 06:52:59;;;;;;;0.52;0.50;;;23.70;54.30;24.00;101437.00;;;;5000658;27;89138;-65
2022/06/17 06:55:25;;;;;;;0.90;0.32;;;23.80;53.80;24.10;101449.00;;;;5007528;27;87769;-66
2022/06/17 06:57:55;;;;;;;0.50;0.40;;;23.90;53.40;24.20;101444.00;;;;4996569;27;87890;-68
2022/06/17 07:00:29;;;;;;;0.98;0.65;;;24.00;52.90;24.30;101440.00;;;;4996470;27;91237;-66
2022/06/17 07:02:55;;;;;;;1.17;0.60;;;24.10;51.60;24.20;101445.00;;;;4999786;27;88419;-66
2022/06/17 07:05:21;;;;;;;0.43;0.35;;;24.00;51.80;24.20;101447.00;;;;5016123;27;107300;-67
2022/06/17 07:07:47;;;;;;;0.32;0.17;;;24.10;51.60;24.30;101442.00;;;;5013503;27;109026;-67
2022/06/17 07:10:23;;;;;;;0.47;0.47;;;24.10;51.30;24.30;101442.00;;;;5010807;27;105686;-67
2022/06/17 07:12:55;;;;;;;0.30;0.30;;;24.10;50.90;24.40;101446.00;;;;4995906;27;89585;-65
2022/06/17 07:15:22;;;;;;;0.57;0.43;;;24.10;51.00;24.50;101455.00;;;;5010520;27;109629;-66
2022/06/17 07:18:00;;;;;;;0.60;0.60;;;24.20;51.00;24.70;101448.00;;;;5013332;27;88174;-68
2022/06/17 07:20:31;;;;;;;0.77;0.60;;;24.40;50.80;24.90;101451.00;;;;5011358;27;87948;-66
2022/06/17 07:23:11;;;;;;;0.60;0.60;;;24.60;50.00;25.00;101459.00;;;;4996467;27;88321;-67
2022/06/17 07:25:37;;;;;;;0.68;0.50;;;24.80;49.50;25.10;101456.00;;;;4996576;28;95934;-67
2022/06/17 07:28:04;;;;;;;1.15;0.85;;;24.90;49.00;25.20;101458.00;;;;5028286;27;88378;-66
2022/06/17 07:30:31;;;;;;;0.15;0.15;;;25.00;49.00;25.40;101470.00;;;;5014808;27;99570;-67
2022/06/17 07:32:56;;;;;;;1.08;0.60;;;25.10;48.80;25.40;101476.00;;;;5013756;27;88624;-66
2022/06/17 07:35:23;;;;;;;3.22;0.60;;;25.20;48.40;25.50;101470.00;;;;5016383;27;89063;-68
2022/06/17 07:40:33;;;;;;;1.55;0.68;;;25.40;48.10;25.80;101487.00;;;;4993332;27;87403;-67
2022/06/17 07:43:00;;;;;;;1.83;0.32;;;25.60;47.30;25.70;101476.00;;;;5014154;27;118006;-67
2022/06/17 07:45:29;;;;;;;0.50;0.50;;;25.60;47.10;25.70;101477.00;;;;5016771;27;87817;-67
2022/06/17 07:47:56;;;;;;;0.93;0.45;;;25.50;47.00;25.70;101479.00;;;;4995467;28;87837;-67
2022/06/17 07:50:30;;;;;;;0.68;0.68;;;25.50;46.60;25.70;101470.00;;;;4997069;27;87662;-68
2022/06/17 07:53:15;;;;;;;0.68;0.52;;;25.50;46.80;25.80;101481.00;;;;4995102;27;87202;-68
2022/06/17 07:55:42;;;;;;;1.13;0.45;;;25.60;47.10;26.00;101491.00;;;;4993888;27;87936;-68
2022/06/17 07:58:11;;;;;;;0.38;0.32;;;25.80;46.60;26.20;101490.00;;;;4995209;27;88091;-68
2022/06/17 08:00:42;;;;;;;4.32;0.52;;;26.00;46.50;26.30;101490.00;;;;5010199;27;105658;-69
2022/06/17 08:03:08;;;;;;;0.30;0.30;;;26.10;45.50;26.20;101488.00;;;;5012855;27;89158;-68
2022/06/17 08:05:47;;;;;;;0.50;0.30;;;26.10;45.70;26.20;101492.00;;;;5007419;27;87945;-68
2022/06/17 08:08:21;;;;;;;0.40;0.40;;;26.10;45.40;26.10;101491.00;;;;5013864;27;87682;-67
2022/06/17 08:10:49;;;;;;;1.45;0.73;;;26.00;45.20;26.10;101490.00;;;;5007772;27;88977;-68
2022/06/17 08:13:15;;;;;;;0.55;0.30;;;26.00;45.40;26.20;101493.00;;;;4998886;27;89173;-68
2022/06/17 08:15:40;;;;;;;0.60;0.60;;;26.00;45.30;26.40;101477.00;;;;4994738;28;110876;-67
2022/06/17 08:18:06;;;;;;;0.28;0.22;;;26.20;45.40;26.70;101492.00;;;;4995133;28;107768;-68
2022/06/17 08:20:35;;;;;;;0.35;0.20;;;26.40;45.20;27.00;101489.00;;;;4994077;27;117764;-68
2022/06/17 08:23:04;;;;;;;0.30;0.30;;;26.70;45.10;27.30;101499.00;;;;5014539;27;87844;-69
2022/06/17 08:25:32;;;;;;;1.25;0.52;;;26.90;44.30;27.30;101494.00;;;;5015347;27;88966;-69
2022/06/17 08:28:02;;;;;;;0.47;0.47;;;27.10;43.20;27.20;101493.00;;;;5012257;27;102158;-67
2022/06/17 08:30:39;;;;;;;1.77;0.63;;;27.00;43.00;27.10;101485.00;;;;5018451;27;88051;-67
2022/06/17 08:33:06;;;;;;;1.85;0.38;;;27.00;42.60;27.10;101498.00;;;;5003695;27;87924;-69
2022/06/17 08:35:40;;;;;;;2.65;0.65;;;26.90;43.10;27.10;101500.00;;;;4998165;27;95587;-68
2022/06/17 08:38:22;;;;;;;0.63;0.30;;;26.90;42.90;27.10;101499.00;;;;4999221;28;98678;-70
2022/06/17 08:40:54;;;;;;;0.98;0.68;;;26.90;43.00;27.10;101515.00;;;;5014838;27;104324;-69
2022/06/17 08:43:49;;;;;;;1.20;0.52;;;26.90;43.00;27.10;101520.00;;;;5012341;27;87951;-68
2022/06/17 08:46:58;;;;;;;0.63;0.52;;;26.80;42.90;27.10;101520.00;;;;5012978;27;103221;-68
2022/06/17 08:49:45;;;;;;;0.77;0.25;;;26.80;43.00;27.20;101513.00;;;;4979890;28;93051;-70
2022/06/17 08:52:38;;;;;;;0.43;0.35;;;26.90;42.80;27.20;101513.00;;;;5007922;27;88913;-70
2022/06/17 08:55:21;;;;;;;0.20;0.20;;;27.00;42.70;27.10;101521.00;;;;5019411;27;88189;-69
2022/06/17 08:58:04;;;;;;;0.77;0.47;;;26.90;42.60;27.10;101508.00;;;;4998434;28;88070;-68
2022/06/17 09:01:16;;;;;;;0.40;0.20;;;26.80;42.60;27.20;101505.00;;;;4996901;28;87700;-68
2022/06/17 09:03:58;;;;;;;1.55;0.63;;;26.90;42.80;27.60;101510.00;;;;4979457;28;110310;-67
2022/06/17 09:06:53;;;;;;;1.45;0.50;;;27.20;42.60;27.70;101514.00;;;;4996409;28;87888;-70
2022/06/17 09:10:06;;;;;;;0.40;0.40;;;27.40;41.90;27.50;101509.00;;;;4994572;27;88101;-68
2022/06/17 09:13:28;;;;;;;0.45;0.45;;;27.30;40.80;27.50;101508.00;;;;4998583;27;87010;-69
2022/06/17 09:16:08;;;;;;;1.00;0.30;;;27.30;41.00;27.40;101514.00;;;;4997643;28;88177;-68
2022/06/17 09:18:39;;;;;;;0.40;0.30;;;27.20;40.80;27.40;101508.00;;;;4981480;28;87813;-68
2022/06/17 09:21:25;;;;;;;1.13;0.40;;;27.20;41.10;27.60;101507.00;;;;4979010;28;88860;-70
2022/06/17 09:23:52;;;;;;;0.50;0.40;;;27.30;41.40;28.00;101504.00;;;;4998383;27;87863;-69
2022/06/17 09:26:33;;;;;;;2.47;0.50;;;27.50;41.40;28.30;101510.00;;;;4996894;27;93031;-68
2022/06/17 09:29:17;;;;;;;0.98;0.40;;;27.80;41.20;28.20;101506.00;;;;4978690;28;87948;-69
2022/06/17 09:31:52;;;;;;;0.20;0.20;;;27.90;40.10;28.00;101504.00;;;;4983131;27;93500;-68
2022/06/17 09:35:04;;;;;;;0.13;0.10;;;27.80;40.50;27.90;101500.00;;;;4998550;27;87719;-69
2022/06/17 09:38:07;;;;;;;1.45;0.30;;;27.70;40.70;27.90;101500.00;;;;4999241;27;87989;-70
2022/06/17 09:41:05;;;;;;;2.80;1.00;;;27.60;40.70;27.70;101497.00;;;;5015108;27;87287;-68
2022/06/17 09:43:48;;;;;;;0.30;0.20;;;27.60;39.80;27.60;101500.00;;;;5016581;27;100452;-69
2022/06/17 09:46:26;;;;;;;0.95;0.60;;;27.40;40.10;27.50;101494.00;;;;4979094;28;87855;-68
2022/06/17 09:49:14;;;;;;;0.47;0.40;;;27.30;40.20;27.40;101492.00;;;;4977181;28;99307;-68
2022/06/17 09:52:11;;;;;;;0.38;0.35;;;27.20;39.60;27.30;101484.00;;;;4982344;28;94942;-69
2022/06/17 09:55:24;;;;;;;0.50;0.43;;;27.00;40.10;27.40;101490.00;;;;4995571;28;87737;-69
2022/06/17 09:58:06;;;;;;;0.65;0.50;;;27.10;40.20;27.50;101482.00;;;;4978107;28;87536;-68
2022/06/17 10:00:51;;;;;;;0.60;0.40;;;27.20;40.20;28.00;101482.00;;;;4977829;28;88252;-70
2022/06/17 10:03:24;;;;;;;0.40;0.28;;;27.40;40.60;28.40;101478.00;;;;4994866;27;101755;-68
2022/06/17 10:06:46;;;;;;;0.50;0.43;;;27.80;39.70;28.70;101479.00;;;;4994380;27;87993;-69
2022/06/17 10:09:55;;;;;;;0.32;0.30;;;28.10;39.00;29.10;101478.00;;;;4993836;27;87156;-70
2022/06/17 10:12:39;;;;;;;0.30;0.30;;;28.60;39.20;29.50;101471.00;;;;4996553;27;88208;-70
2022/06/17 10:15:38;;;;;;;0.22;0.22;;;28.90;38.80;29.90;101468.00;;;;5011088;27;87758;-68
2022/06/17 10:18:33;;;;;;;0.30;0.30;;;29.20;37.50;30.10;101472.00;;;;5014221;27;88478;-70
2022/06/17 10:21:33;;;;;;;0.52;0.50;;;29.50;37.50;30.40;101466.00;;;;5010811;27;87630;-72
2022/06/17 10:24:12;;;;;;;0.82;0.40;;;29.80;37.20;30.70;101472.00;;;;5007611;27;88155;-71
2022/06/17 10:26:58;;;;;;;0.80;0.30;;;30.00;36.60;30.80;101460.00;;;;4992840;27;88219;-69
2022/06/17 10:29:40;;;;;;;0.82;0.43;;;30.20;36.40;30.70;101464.00;;;;4992363;27;90617;-69
2022/06/17 10:32:06;;;;;;;1.65;0.68;;;30.20;36.20;30.90;101459.00;;;;5011162;27;87939;-69
2022/06/17 10:34:44;;;;;;;0.30;0.30;;;30.30;36.60;31.10;101464.00;;;;4982674;27;116405;-69
2022/06/17 10:37:11;;;;;;;4.15;0.30;;;30.40;35.90;31.20;101457.00;;;;5009861;27;87922;-71
2022/06/17 10:39:39;;;;;;;1.15;0.45;;;30.60;36.20;31.50;101452.00;;;;4993552;27;88159;-71
2022/06/17 10:42:11;;;;;;;1.70;0.50;;;30.70;36.20;31.80;101457.00;;;;4994461;27;87715;-71
2022/06/17 10:44:39;;;;;;;0.32;0.30;;;31.00;36.10;32.00;101448.00;;;;4999161;27;89918;-70
2022/06/17 10:47:11;;;;;;;0.52;0.30;;;31.20;34.60;31.40;101452.00;;;;4992098;27;118420;-69
2022/06/17 10:49:46;;;;;;;1.17;0.43;;;31.00;33.70;31.10;101447.00;;;;5007941;27;92402;-70
2022/06/17 10:52:30;;;;;;;0.20;0.20;;;30.70;34.80;31.20;101448.00;;;;4989037;27;88084;-71
2022/06/17 10:54:56;;;;;;;1.25;0.43;;;30.60;35.10;31.30;101442.00;;;;4997147;27;88295;-69
2022/06/17 10:57:32;;;;;;;0.50;0.38;;;30.60;34.80;31.50;101444.00;;;;5009513;27;117397;-71
2022/06/17 10:59:58;;;;;;;0.88;0.30;;;30.80;35.20;31.80;101441.00;;;;4983305;27;87777;-70
2022/06/17 11:02:30;;;;;;;0.98;0.47;;;31.10;34.60;31.90;101430.00;;;;5006783;27;87095;-69
2022/06/17 11:05:05;;;;;;;0.20;0.20;;;31.20;34.30;31.70;101437.00;;;;5009223;27;88992;-70
2022/06/17 11:07:51;;;;;;;0.20;0.20;;;31.20;34.00;31.70;101441.00;;;;4991667;27;88683;-71
2022/06/17 11:10:23;;;;;;;0.45;0.25;;;31.10;34.10;31.60;101433.00;;;;4991776;27;88735;-69
2022/06/17 11:13:01;;;;;;;0.80;0.30;;;31.10;33.80;31.60;101437.00;;;;5008979;27;100681;-69
2022/06/17 11:15:39;;;;;;;0.70;0.17;;;31.10;33.90;31.70;101437.00;;;;5003231;27;88093;-70
2022/06/17 11:18:16;;;;;;;0.30;0.30;;;31.00;34.10;31.90;101433.00;;;;4992071;27;88335;-70
2022/06/17 11:21:03;;;;;;;1.05;0.40;;;31.30;34.10;32.10;101432.00;;;;4992367;27;87599;-69
2022/06/17 11:23:33;;;;;;;3.33;0.70;;;31.40;33.70;32.10;101434.00;;;;4999437;27;87831;-70
2022/06/17 11:26:17;;;;;;;0.57;0.43;;;31.50;33.50;32.40;101428.00;;;;4990611;27;108458;-69
2022/06/17 11:28:50;;;;;;;0.65;0.50;;;31.70;33.90;32.80;101424.00;;;;5002563;27;87311;-69